Plato — 8PRX — position and weather

sailwx.info

Track history (hours):
 
Tides and Currents Weather Stations Pressure Air Temp Water Temp Dewpoint Dewpoint Depression Visibility Wind Speed Wind Dir Waves Ship Positions

Plato

Last reported at 2016-May-29 16:14 UTC. Time now 2016-May-30 20:18 UTC.
Position N 37°35' W 000°28'.

Length 89 m; draft 3.5 m.

Type: Ship. MMSI: 314189000.

Date/timePositionNaut miles runAvg speedWind from/ knotsBaromVisibWave heightAir tempDewpointWater temp
2016-May-29 16:14N 37°35' W 000°28'17 9.6
2016-May-29 14:27N 37°24' W 000°44'234 4.9
2016-May-27 14:29N 36°05' W 005°19'2 2.2
2016-May-27 13:31N 36°06' W 005°17'0 0.2
2016-May-27 11:09N 36°05' W 005°17'12 3.2
2016-May-27 07:27N 35°58' W 005°28'  
2016-May-22 04:30N 49°51' W 003°23'130 8.7
2016-May-21 13:33N 50°30' W 000°09'10 9.8
2016-May-21 12:33N 50°33' E 000°05'60 8.6
2016-May-21 05:33N 51°04' E 001°27'10 9.7
2016-May-21 04:33N 51°10' E 001°39'9 8.7
2016-May-21 03:33N 51°16' E 001°48'8 8.1
2016-May-21 02:33N 51°23' E 001°56'9 6.8
2016-May-21 01:13N 51°22' E 002°11'6 8.0
2016-May-21 00:31N 51°21' E 002°19'7 7.4
2016-May-20 23:33N 51°23' E 002°30'21 8.8
2016-May-20 21:09N 51°24' E 003°04'7 9.9
2016-May-20 20:28N 51°25' E 003°15'910.0
2016-May-20 19:33N 51°25' E 003°29'8 8.4
2016-May-20 18:33N 51°24' E 003°43'9 9.1
2016-May-20 17:33N 51°24' E 003°57'8 7.9
2016-May-20 16:33N 51°23' E 004°10'9 8.8
2016-May-20 15:33N 51°17' E 004°19'5 4.9
2016-May-20 14:33N 51°12' E 004°20'5 4.9
2016-May-20 13:31N 51°07' E 004°18'3 0.2
2016-May-19 18:23N 51°05' E 004°22'0 0.1
2016-May-19 17:33N 51°04' E 004°22'0 0.0
2016-May-19 16:33N 51°04' E 004°22'  
Track history (hours):
 
Tides and Currents Weather Stations Pressure Air Temp Water Temp Dewpoint Dewpoint Depression Visibility Wind Speed Wind Dir Waves Ship Positions

Plato

Last reported at 2016-May-29 16:14 UTC. Time now 2016-May-30 20:18 UTC.
Position N 37°35' W 000°28'.

Length 89 m; draft 3.5 m.

Type: Ship. MMSI: 314189000.

Date/timePositionNaut miles runAvg speedWind from/ knotsBaromVisibWave heightAir tempDewpointWater temp
2016-May-29 16:14N 37°35' W 000°28'17 9.6
2016-May-29 14:27N 37°24' W 000°44'234 4.9
2016-May-27 14:29N 36°05' W 005°19'2 2.2
2016-May-27 13:31N 36°06' W 005°17'0 0.2
2016-May-27 11:09N 36°05' W 005°17'12 3.2
2016-May-27 07:27N 35°58' W 005°28'  
2016-May-22 04:30N 49°51' W 003°23'130 8.7
2016-May-21 13:33N 50°30' W 000°09'10 9.8
2016-May-21 12:33N 50°33' E 000°05'60 8.6
2016-May-21 05:33N 51°04' E 001°27'10 9.7
2016-May-21 04:33N 51°10' E 001°39'9 8.7
2016-May-21 03:33N 51°16' E 001°48'8 8.1
2016-May-21 02:33N 51°23' E 001°56'9 6.8
2016-May-21 01:13N 51°22' E 002°11'6 8.0
2016-May-21 00:31N 51°21' E 002°19'7 7.4
2016-May-20 23:33N 51°23' E 002°30'21 8.8
2016-May-20 21:09N 51°24' E 003°04'7 9.9
2016-May-20 20:28N 51°25' E 003°15'910.0
2016-May-20 19:33N 51°25' E 003°29'8 8.4
2016-May-20 18:33N 51°24' E 003°43'9 9.1
2016-May-20 17:33N 51°24' E 003°57'8 7.9
2016-May-20 16:33N 51°23' E 004°10'9 8.8
2016-May-20 15:33N 51°17' E 004°19'5 4.9
2016-May-20 14:33N 51°12' E 004°20'5 4.9
2016-May-20 13:31N 51°07' E 004°18'3 0.2
2016-May-19 18:23N 51°05' E 004°22'0 0.1
2016-May-19 17:33N 51°04' E 004°22'0 0.0
2016-May-19 16:33N 51°04' E 004°22'  

Dump ship's entire track history